sensor_id;sensor_type;location;lat;lon;timestamp;P1;durP1;ratioP1;P2;durP2;ratioP2
24443;SDS011;13346;50.984;5.822;2023-12-20T00:00:30;13.40;;;12.07;;
24443;SDS011;13346;50.984;5.822;2023-12-20T00:02:58;11.40;;;10.30;;
24443;SDS011;13346;50.984;5.822;2023-12-20T00:05:25;10.20;;;9.30;;
24443;SDS011;13346;50.984;5.822;2023-12-20T00:07:52;11.60;;;10.13;;
24443;SDS011;13346;50.984;5.822;2023-12-20T00:10:20;7.50;;;6.80;;
24443;SDS011;13346;50.984;5.822;2023-12-20T00:12:47;5.60;;;5.10;;
24443;SDS011;13346;50.984;5.822;2023-12-20T00:15:14;7.03;;;5.90;;
24443;SDS011;13346;50.984;5.822;2023-12-20T00:17:42;8.00;;;6.30;;
24443;SDS011;13346;50.984;5.822;2023-12-20T00:20:10;7.40;;;5.53;;
24443;SDS011;13346;50.984;5.822;2023-12-20T00:22:37;5.40;;;4.97;;
24443;SDS011;13346;50.984;5.822;2023-12-20T00:25:04;3.80;;;3.53;;
24443;SDS011;13346;50.984;5.822;2023-12-20T00:27:32;5.90;;;4.47;;
24443;SDS011;13346;50.984;5.822;2023-12-20T00:29:59;6.47;;;4.23;;
24443;SDS011;13346;50.984;5.822;2023-12-20T00:32:26;6.73;;;3.27;;
24443;SDS011;13346;50.984;5.822;2023-12-20T00:34:55;5.17;;;2.33;;
24443;SDS011;13346;50.984;5.822;2023-12-20T00:37:22;5.10;;;2.43;;
24443;SDS011;13346;50.984;5.822;2023-12-20T00:39:49;11.37;;;2.50;;
24443;SDS011;13346;50.984;5.822;2023-12-20T00:42:16;5.67;;;2.07;;
24443;SDS011;13346;50.984;5.822;2023-12-20T00:44:43;4.63;;;2.70;;
24443;SDS011;13346;50.984;5.822;2023-12-20T00:47:11;4.83;;;1.90;;
24443;SDS011;13346;50.984;5.822;2023-12-20T00:49:38;7.63;;;2.43;;
24443;SDS011;13346;50.984;5.822;2023-12-20T00:52:07;4.90;;;2.30;;
24443;SDS011;13346;50.984;5.822;2023-12-20T00:54:34;12.43;;;2.60;;
24443;SDS011;13346;50.984;5.822;2023-12-20T00:57:01;7.07;;;1.87;;
24443;SDS011;13346;50.984;5.822;2023-12-20T00:59:28;11.53;;;2.83;;
24443;SDS011;13346;50.984;5.822;2023-12-20T01:01:55;7.20;;;2.73;;
24443;SDS011;13346;50.984;5.822;2023-12-20T01:04:22;4.47;;;1.30;;
24443;SDS011;13346;50.984;5.822;2023-12-20T01:06:49;7.30;;;2.23;;
24443;SDS011;13346;50.984;5.822;2023-12-20T01:09:18;4.80;;;2.20;;
24443;SDS011;13346;50.984;5.822;2023-12-20T01:11:45;12.57;;;2.30;;
24443;SDS011;13346;50.984;5.822;2023-12-20T01:14:12;5.90;;;2.67;;
24443;SDS011;13346;50.984;5.822;2023-12-20T01:16:38;5.60;;;2.47;;
24443;SDS011;13346;50.984;5.822;2023-12-20T01:19:05;3.87;;;1.90;;
24443;SDS011;13346;50.984;5.822;2023-12-20T01:21:33;13.60;;;3.37;;
24443;SDS011;13346;50.984;5.822;2023-12-20T01:24:00;5.80;;;3.73;;
24443;SDS011;13346;50.984;5.822;2023-12-20T01:26:28;11.63;;;4.93;;
24443;SDS011;13346;50.984;5.822;2023-12-20T01:28:55;25.43;;;7.07;;
24443;SDS011;13346;50.984;5.822;2023-12-20T01:31:23;14.83;;;8.50;;
24443;SDS011;13346;50.984;5.822;2023-12-20T01:33:50;17.03;;;9.53;;
24443;SDS011;13346;50.984;5.822;2023-12-20T01:36:17;12.87;;;8.13;;
24443;SDS011;13346;50.984;5.822;2023-12-20T01:38:44;18.00;;;8.63;;
24443;SDS011;13346;50.984;5.822;2023-12-20T01:41:12;14.83;;;8.33;;
24443;SDS011;13346;50.984;5.822;2023-12-20T01:43:40;15.60;;;7.83;;
24443;SDS011;13346;50.984;5.822;2023-12-20T01:46:07;15.93;;;8.10;;
24443;SDS011;13346;50.984;5.822;2023-12-20T01:48:35;14.50;;;8.60;;
24443;SDS011;13346;50.984;5.822;2023-12-20T01:51:03;17.53;;;8.13;;
24443;SDS011;13346;50.984;5.822;2023-12-20T01:53:30;10.53;;;8.10;;
24443;SDS011;13346;50.984;5.822;2023-12-20T01:55:58;17.33;;;8.90;;
24443;SDS011;13346;50.984;5.822;2023-12-20T01:58:26;17.33;;;9.17;;
24443;SDS011;13346;50.984;5.822;2023-12-20T02:00:55;17.00;;;7.70;;
24443;SDS011;13346;50.984;5.822;2023-12-20T02:03:23;13.43;;;8.23;;
24443;SDS011;13346;50.984;5.822;2023-12-20T02:05:51;14.97;;;7.03;;
24443;SDS011;13346;50.984;5.822;2023-12-20T02:08:19;13.33;;;6.43;;
24443;SDS011;13346;50.984;5.822;2023-12-20T02:10:46;11.30;;;8.27;;
24443;SDS011;13346;50.984;5.822;2023-12-20T02:13:14;16.83;;;7.03;;
24443;SDS011;13346;50.984;5.822;2023-12-20T02:15:41;11.30;;;7.07;;
24443;SDS011;13346;50.984;5.822;2023-12-20T02:18:10;11.63;;;7.50;;
24443;SDS011;13346;50.984;5.822;2023-12-20T02:20:40;11.53;;;5.70;;
24443;SDS011;13346;50.984;5.822;2023-12-20T02:23:09;14.83;;;6.90;;
24443;SDS011;13346;50.984;5.822;2023-12-20T02:25:36;6.13;;;4.17;;
24443;SDS011;13346;50.984;5.822;2023-12-20T02:28:03;10.47;;;5.70;;
24443;SDS011;13346;50.984;5.822;2023-12-20T02:30:32;14.97;;;5.37;;
24443;SDS011;13346;50.984;5.822;2023-12-20T02:32:59;10.77;;;7.63;;
24443;SDS011;13346;50.984;5.822;2023-12-20T02:35:27;8.20;;;4.60;;
24443;SDS011;13346;50.984;5.822;2023-12-20T02:37:54;14.60;;;7.90;;
24443;SDS011;13346;50.984;5.822;2023-12-20T02:40:23;16.50;;;8.93;;
24443;SDS011;13346;50.984;5.822;2023-12-20T02:42:50;13.43;;;8.70;;
24443;SDS011;13346;50.984;5.822;2023-12-20T02:45:17;11.37;;;7.33;;
24443;SDS011;13346;50.984;5.822;2023-12-20T02:47:44;15.83;;;7.43;;
24443;SDS011;13346;50.984;5.822;2023-12-20T02:50:11;15.63;;;6.20;;
24443;SDS011;13346;50.984;5.822;2023-12-20T02:52:38;11.43;;;6.70;;
24443;SDS011;13346;50.984;5.822;2023-12-20T02:55:06;12.00;;;7.77;;
24443;SDS011;13346;50.984;5.822;2023-12-20T02:57:34;12.73;;;7.17;;
24443;SDS011;13346;50.984;5.822;2023-12-20T03:00:02;20.43;;;7.93;;
24443;SDS011;13346;50.984;5.822;2023-12-20T03:02:29;10.53;;;5.47;;
24443;SDS011;13346;50.984;5.822;2023-12-20T03:04:57;7.37;;;4.90;;
24443;SDS011;13346;50.984;5.822;2023-12-20T03:07:25;16.37;;;5.83;;
24443;SDS011;13346;50.984;5.822;2023-12-20T03:09:53;13.00;;;7.20;;
24443;SDS011;13346;50.984;5.822;2023-12-20T03:12:20;11.10;;;5.80;;
24443;SDS011;13346;50.984;5.822;2023-12-20T03:14:49;9.37;;;5.73;;
24443;SDS011;13346;50.984;5.822;2023-12-20T03:17:16;5.40;;;3.17;;
24443;SDS011;13346;50.984;5.822;2023-12-20T03:19:44;11.97;;;4.20;;
24443;SDS011;13346;50.984;5.822;2023-12-20T03:22:11;10.37;;;3.23;;
24443;SDS011;13346;50.984;5.822;2023-12-20T03:24:38;7.80;;;3.00;;
24443;SDS011;13346;50.984;5.822;2023-12-20T03:27:05;8.47;;;3.63;;
24443;SDS011;13346;50.984;5.822;2023-12-20T03:29:32;8.07;;;4.20;;
24443;SDS011;13346;50.984;5.822;2023-12-20T03:32:01;8.70;;;2.97;;
24443;SDS011;13346;50.984;5.822;2023-12-20T03:34:28;3.70;;;2.43;;
24443;SDS011;13346;50.984;5.822;2023-12-20T03:36:55;6.80;;;3.10;;
24443;SDS011;13346;50.984;5.822;2023-12-20T03:39:23;10.43;;;2.83;;
24443;SDS011;13346;50.984;5.822;2023-12-20T03:41:50;13.30;;;4.33;;
24443;SDS011;13346;50.984;5.822;2023-12-20T03:44:17;18.47;;;3.13;;
24443;SDS011;13346;50.984;5.822;2023-12-20T03:46:44;7.30;;;3.43;;
24443;SDS011;13346;50.984;5.822;2023-12-20T03:49:13;4.13;;;2.40;;
24443;SDS011;13346;50.984;5.822;2023-12-20T03:51:40;6.90;;;2.63;;
24443;SDS011;13346;50.984;5.822;2023-12-20T03:54:08;11.73;;;3.10;;
24443;SDS011;13346;50.984;5.822;2023-12-20T03:56:35;6.43;;;3.40;;
24443;SDS011;13346;50.984;5.822;2023-12-20T03:59:02;8.90;;;3.17;;
24443;SDS011;13346;50.984;5.822;2023-12-20T04:01:29;10.67;;;3.00;;
24443;SDS011;13346;50.984;5.822;2023-12-20T04:03:57;4.70;;;2.37;;
24443;SDS011;13346;50.984;5.822;2023-12-20T04:06:25;6.83;;;2.13;;
24443;SDS011;13346;50.984;5.822;2023-12-20T04:08:53;8.97;;;2.87;;
24443;SDS011;13346;50.984;5.822;2023-12-20T04:11:20;4.70;;;2.60;;
24443;SDS011;13346;50.984;5.822;2023-12-20T04:13:47;5.20;;;3.43;;
24443;SDS011;13346;50.984;5.822;2023-12-20T04:16:15;9.83;;;3.60;;
24443;SDS011;13346;50.984;5.822;2023-12-20T04:18:42;10.13;;;2.87;;
24443;SDS011;13346;50.984;5.822;2023-12-20T04:21:09;9.20;;;3.40;;
24443;SDS011;13346;50.984;5.822;2023-12-20T04:23:37;4.80;;;2.47;;
24443;SDS011;13346;50.984;5.822;2023-12-20T04:26:05;6.70;;;2.63;;
24443;SDS011;13346;50.984;5.822;2023-12-20T04:28:32;6.30;;;2.93;;
24443;SDS011;13346;50.984;5.822;2023-12-20T04:31:00;5.63;;;2.80;;
24443;SDS011;13346;50.984;5.822;2023-12-20T04:33:27;7.87;;;4.07;;
24443;SDS011;13346;50.984;5.822;2023-12-20T04:35:54;10.00;;;4.97;;
24443;SDS011;13346;50.984;5.822;2023-12-20T04:38:22;7.33;;;2.87;;
24443;SDS011;13346;50.984;5.822;2023-12-20T04:40:51;6.67;;;3.67;;
24443;SDS011;13346;50.984;5.822;2023-12-20T04:43:18;8.93;;;3.53;;
24443;SDS011;13346;50.984;5.822;2023-12-20T04:45:45;5.23;;;3.13;;
24443;SDS011;13346;50.984;5.822;2023-12-20T04:48:12;11.03;;;2.70;;
24443;SDS011;13346;50.984;5.822;2023-12-20T04:50:40;6.83;;;3.30;;
24443;SDS011;13346;50.984;5.822;2023-12-20T04:53:07;12.07;;;3.60;;
24443;SDS011;13346;50.984;5.822;2023-12-20T04:55:34;6.70;;;2.83;;
24443;SDS011;13346;50.984;5.822;2023-12-20T04:58:03;5.47;;;2.90;;
24443;SDS011;13346;50.984;5.822;2023-12-20T05:00:30;12.30;;;3.53;;
24443;SDS011;13346;50.984;5.822;2023-12-20T05:02:57;12.33;;;4.23;;
24443;SDS011;13346;50.984;5.822;2023-12-20T05:05:25;13.23;;;3.60;;
24443;SDS011;13346;50.984;5.822;2023-12-20T05:07:52;5.87;;;2.87;;
24443;SDS011;13346;50.984;5.822;2023-12-20T05:10:19;13.20;;;3.67;;
24443;SDS011;13346;50.984;5.822;2023-12-20T05:12:47;11.70;;;3.43;;
24443;SDS011;13346;50.984;5.822;2023-12-20T05:15:15;7.80;;;2.90;;
24443;SDS011;13346;50.984;5.822;2023-12-20T05:17:42;5.83;;;2.67;;
24443;SDS011;13346;50.984;5.822;2023-12-20T05:20:10;5.67;;;2.87;;
24443;SDS011;13346;50.984;5.822;2023-12-20T05:22:37;13.80;;;3.67;;
24443;SDS011;13346;50.984;5.822;2023-12-20T05:25:04;4.90;;;2.93;;
24443;SDS011;13346;50.984;5.822;2023-12-20T05:27:33;14.43;;;4.53;;
24443;SDS011;13346;50.984;5.822;2023-12-20T05:30:00;19.53;;;4.30;;
24443;SDS011;13346;50.984;5.822;2023-12-20T05:32:29;3.50;;;3.00;;
24443;SDS011;13346;50.984;5.822;2023-12-20T05:34:57;6.33;;;3.43;;
24443;SDS011;13346;50.984;5.822;2023-12-20T05:37:24;12.93;;;4.00;;
24443;SDS011;13346;50.984;5.822;2023-12-20T05:39:51;6.67;;;3.83;;
24443;SDS011;13346;50.984;5.822;2023-12-20T05:42:18;11.40;;;3.13;;
24443;SDS011;13346;50.984;5.822;2023-12-20T05:44:45;5.77;;;2.43;;
24443;SDS011;13346;50.984;5.822;2023-12-20T05:47:12;9.47;;;2.60;;
24443;SDS011;13346;50.984;5.822;2023-12-20T05:49:41;11.73;;;3.60;;
24443;SDS011;13346;50.984;5.822;2023-12-20T05:52:09;16.27;;;3.60;;
24443;SDS011;13346;50.984;5.822;2023-12-20T05:54:36;8.93;;;3.93;;
24443;SDS011;13346;50.984;5.822;2023-12-20T05:57:04;9.53;;;3.47;;
24443;SDS011;13346;50.984;5.822;2023-12-20T05:59:31;5.00;;;3.57;;
24443;SDS011;13346;50.984;5.822;2023-12-20T06:01:58;3.70;;;2.40;;
24443;SDS011;13346;50.984;5.822;2023-12-20T06:04:25;7.37;;;3.77;;
24443;SDS011;13346;50.984;5.822;2023-12-20T06:06:54;11.20;;;3.83;;
24443;SDS011;13346;50.984;5.822;2023-12-20T06:09:21;8.93;;;4.10;;
24443;SDS011;13346;50.984;5.822;2023-12-20T06:11:49;8.23;;;3.73;;
24443;SDS011;13346;50.984;5.822;2023-12-20T06:14:16;6.90;;;3.63;;
24443;SDS011;13346;50.984;5.822;2023-12-20T06:16:43;6.47;;;3.60;;
24443;SDS011;13346;50.984;5.822;2023-12-20T06:19:11;10.80;;;3.73;;
24443;SDS011;13346;50.984;5.822;2023-12-20T06:21:39;12.47;;;4.70;;
24443;SDS011;13346;50.984;5.822;2023-12-20T06:24:07;9.30;;;2.97;;
24443;SDS011;13346;50.984;5.822;2023-12-20T06:26:35;11.40;;;3.80;;
24443;SDS011;13346;50.984;5.822;2023-12-20T06:29:02;11.37;;;3.73;;
24443;SDS011;13346;50.984;5.822;2023-12-20T06:31:29;9.37;;;3.93;;
24443;SDS011;13346;50.984;5.822;2023-12-20T06:33:57;3.97;;;3.30;;
24443;SDS011;13346;50.984;5.822;2023-12-20T06:36:25;7.60;;;3.13;;
24443;SDS011;13346;50.984;5.822;2023-12-20T06:38:52;9.67;;;3.17;;
24443;SDS011;13346;50.984;5.822;2023-12-20T06:41:21;8.17;;;3.53;;
24443;SDS011;13346;50.984;5.822;2023-12-20T06:43:49;7.93;;;3.70;;
24443;SDS011;13346;50.984;5.822;2023-12-20T06:46:18;9.37;;;4.23;;
24443;SDS011;13346;50.984;5.822;2023-12-20T06:48:45;9.30;;;4.47;;
24443;SDS011;13346;50.984;5.822;2023-12-20T06:51:14;17.97;;;2.63;;
24443;SDS011;13346;50.984;5.822;2023-12-20T06:53:42;14.10;;;4.47;;
24443;SDS011;13346;50.984;5.822;2023-12-20T06:56:10;9.87;;;4.57;;
24443;SDS011;13346;50.984;5.822;2023-12-20T06:58:39;11.83;;;4.47;;
24443;SDS011;13346;50.984;5.822;2023-12-20T07:01:10;4.77;;;3.53;;
24443;SDS011;13346;50.984;5.822;2023-12-20T07:03:38;8.80;;;4.10;;
24443;SDS011;13346;50.984;5.822;2023-12-20T07:06:05;12.00;;;4.33;;
24443;SDS011;13346;50.984;5.822;2023-12-20T07:08:32;7.90;;;3.67;;
24443;SDS011;13346;50.984;5.822;2023-12-20T07:11:00;6.27;;;3.73;;
24443;SDS011;13346;50.984;5.822;2023-12-20T07:13:27;13.60;;;4.97;;
24443;SDS011;13346;50.984;5.822;2023-12-20T07:15:55;4.47;;;3.43;;
24443;SDS011;13346;50.984;5.822;2023-12-20T07:18:23;13.27;;;4.70;;
24443;SDS011;13346;50.984;5.822;2023-12-20T07:20:50;14.70;;;3.63;;
24443;SDS011;13346;50.984;5.822;2023-12-20T07:23:17;6.83;;;3.83;;
24443;SDS011;13346;50.984;5.822;2023-12-20T07:25:45;16.67;;;5.83;;
24443;SDS011;13346;50.984;5.822;2023-12-20T07:28:12;6.27;;;3.80;;
24443;SDS011;13346;50.984;5.822;2023-12-20T07:30:40;14.30;;;4.23;;
24443;SDS011;13346;50.984;5.822;2023-12-20T07:33:08;7.90;;;3.57;;
24443;SDS011;13346;50.984;5.822;2023-12-20T07:35:37;7.33;;;3.53;;
24443;SDS011;13346;50.984;5.822;2023-12-20T07:38:04;7.10;;;4.63;;
24443;SDS011;13346;50.984;5.822;2023-12-20T07:40:32;3.90;;;3.00;;
24443;SDS011;13346;50.984;5.822;2023-12-20T07:42:59;14.57;;;3.37;;
24443;SDS011;13346;50.984;5.822;2023-12-20T07:45:26;7.07;;;4.30;;
24443;SDS011;13346;50.984;5.822;2023-12-20T07:47:53;9.73;;;3.50;;
24443;SDS011;13346;50.984;5.822;2023-12-20T07:50:22;10.00;;;4.40;;
24443;SDS011;13346;50.984;5.822;2023-12-20T07:52:49;9.90;;;4.17;;
24443;SDS011;13346;50.984;5.822;2023-12-20T07:55:16;10.23;;;3.77;;
24443;SDS011;13346;50.984;5.822;2023-12-20T07:57:43;8.43;;;2.97;;
24443;SDS011;13346;50.984;5.822;2023-12-20T08:00:11;9.00;;;3.70;;
24443;SDS011;13346;50.984;5.822;2023-12-20T08:02:39;14.57;;;4.00;;
24443;SDS011;13346;50.984;5.822;2023-12-20T08:05:07;10.40;;;3.73;;
24443;SDS011;13346;50.984;5.822;2023-12-20T08:07:36;6.60;;;3.67;;
24443;SDS011;13346;50.984;5.822;2023-12-20T08:10:03;11.60;;;4.50;;
24443;SDS011;13346;50.984;5.822;2023-12-20T08:12:32;7.00;;;3.40;;
24443;SDS011;13346;50.984;5.822;2023-12-20T08:14:59;7.50;;;3.53;;
24443;SDS011;13346;50.984;5.822;2023-12-20T08:17:26;12.37;;;4.10;;
24443;SDS011;13346;50.984;5.822;2023-12-20T08:19:53;15.17;;;3.00;;
24443;SDS011;13346;50.984;5.822;2023-12-20T08:22:20;5.00;;;3.27;;
24443;SDS011;13346;50.984;5.822;2023-12-20T08:24:49;6.23;;;2.73;;
24443;SDS011;13346;50.984;5.822;2023-12-20T08:27:17;9.90;;;3.67;;
24443;SDS011;13346;50.984;5.822;2023-12-20T08:29:44;9.27;;;2.90;;
24443;SDS011;13346;50.984;5.822;2023-12-20T08:32:11;5.90;;;2.77;;
24443;SDS011;13346;50.984;5.822;2023-12-20T08:34:38;5.83;;;3.13;;
24443;SDS011;13346;50.984;5.822;2023-12-20T08:37:05;9.83;;;4.17;;
24443;SDS011;13346;50.984;5.822;2023-12-20T08:39:32;18.73;;;5.63;;
24443;SDS011;13346;50.984;5.822;2023-12-20T08:42:01;10.30;;;3.53;;
24443;SDS011;13346;50.984;5.822;2023-12-20T08:44:28;5.83;;;2.70;;
24443;SDS011;13346;50.984;5.822;2023-12-20T08:46:55;5.00;;;2.80;;
24443;SDS011;13346;50.984;5.822;2023-12-20T08:49:22;17.03;;;3.73;;
24443;SDS011;13346;50.984;5.822;2023-12-20T08:51:50;11.40;;;3.17;;
24443;SDS011;13346;50.984;5.822;2023-12-20T08:54:17;3.37;;;3.07;;
24443;SDS011;13346;50.984;5.822;2023-12-20T08:56:45;12.63;;;4.50;;
24443;SDS011;13346;50.984;5.822;2023-12-20T08:59:14;9.60;;;3.33;;
24443;SDS011;13346;50.984;5.822;2023-12-20T09:01:41;12.23;;;3.90;;
24443;SDS011;13346;50.984;5.822;2023-12-20T09:04:08;9.07;;;3.00;;
24443;SDS011;13346;50.984;5.822;2023-12-20T09:06:35;10.20;;;3.17;;
24443;SDS011;13346;50.984;5.822;2023-12-20T09:09:02;8.07;;;3.60;;
24443;SDS011;13346;50.984;5.822;2023-12-20T09:11:29;6.57;;;3.80;;
24443;SDS011;13346;50.984;5.822;2023-12-20T09:13:56;7.90;;;3.30;;
24443;SDS011;13346;50.984;5.822;2023-12-20T09:16:25;7.33;;;3.40;;
24443;SDS011;13346;50.984;5.822;2023-12-20T09:18:52;3.77;;;1.80;;
24443;SDS011;13346;50.984;5.822;2023-12-20T09:21:19;7.20;;;3.23;;
24443;SDS011;13346;50.984;5.822;2023-12-20T09:23:47;9.90;;;2.47;;
24443;SDS011;13346;50.984;5.822;2023-12-20T09:26:14;9.73;;;2.67;;
24443;SDS011;13346;50.984;5.822;2023-12-20T09:28:41;5.77;;;2.50;;
24443;SDS011;13346;50.984;5.822;2023-12-20T09:31:08;14.03;;;3.03;;
24443;SDS011;13346;50.984;5.822;2023-12-20T09:33:37;11.13;;;3.93;;
24443;SDS011;13346;50.984;5.822;2023-12-20T09:36:04;7.87;;;2.33;;
24443;SDS011;13346;50.984;5.822;2023-12-20T09:38:32;10.27;;;3.10;;
24443;SDS011;13346;50.984;5.822;2023-12-20T09:40:59;4.50;;;2.03;;
24443;SDS011;13346;50.984;5.822;2023-12-20T09:43:29;6.47;;;3.30;;
24443;SDS011;13346;50.984;5.822;2023-12-20T09:45:58;9.60;;;3.67;;
24443;SDS011;13346;50.984;5.822;2023-12-20T09:48:28;6.10;;;2.30;;
24443;SDS011;13346;50.984;5.822;2023-12-20T09:50:57;7.00;;;2.50;;
24443;SDS011;13346;50.984;5.822;2023-12-20T09:53:24;8.20;;;3.20;;
24443;SDS011;13346;50.984;5.822;2023-12-20T09:55:55;7.13;;;2.60;;
24443;SDS011;13346;50.984;5.822;2023-12-20T09:58:25;6.73;;;2.80;;
24443;SDS011;13346;50.984;5.822;2023-12-20T10:00:52;4.87;;;2.60;;
24443;SDS011;13346;50.984;5.822;2023-12-20T10:03:22;13.33;;;3.50;;
24443;SDS011;13346;50.984;5.822;2023-12-20T10:05:52;8.97;;;3.00;;
24443;SDS011;13346;50.984;5.822;2023-12-20T10:08:24;7.50;;;2.00;;
24443;SDS011;13346;50.984;5.822;2023-12-20T10:10:51;11.30;;;3.20;;
24443;SDS011;13346;50.984;5.822;2023-12-20T10:13:19;8.47;;;2.87;;
24443;SDS011;13346;50.984;5.822;2023-12-20T10:15:46;6.77;;;4.17;;
24443;SDS011;13346;50.984;5.822;2023-12-20T10:18:13;4.50;;;3.30;;
24443;SDS011;13346;50.984;5.822;2023-12-20T10:20:41;6.70;;;2.40;;
24443;SDS011;13346;50.984;5.822;2023-12-20T10:23:08;10.60;;;2.50;;
24443;SDS011;13346;50.984;5.822;2023-12-20T10:25:39;4.07;;;2.43;;
24443;SDS011;13346;50.984;5.822;2023-12-20T10:28:10;13.10;;;3.83;;
24443;SDS011;13346;50.984;5.822;2023-12-20T10:30:38;3.40;;;2.63;;
24443;SDS011;13346;50.984;5.822;2023-12-20T10:33:06;9.03;;;2.83;;
24443;SDS011;13346;50.984;5.822;2023-12-20T10:35:34;4.77;;;1.97;;
24443;SDS011;13346;50.984;5.822;2023-12-20T10:38:02;11.90;;;3.20;;
24443;SDS011;13346;50.984;5.822;2023-12-20T10:40:31;8.53;;;3.40;;
24443;SDS011;13346;50.984;5.822;2023-12-20T10:43:04;6.17;;;2.97;;
24443;SDS011;13346;50.984;5.822;2023-12-20T10:45:31;6.30;;;2.17;;
24443;SDS011;13346;50.984;5.822;2023-12-20T10:47:59;4.87;;;2.27;;
24443;SDS011;13346;50.984;5.822;2023-12-20T10:50:28;7.87;;;3.47;;
24443;SDS011;13346;50.984;5.822;2023-12-20T10:52:56;7.47;;;3.27;;
24443;SDS011;13346;50.984;5.822;2023-12-20T10:55:24;5.97;;;3.17;;
24443;SDS011;13346;50.984;5.822;2023-12-20T10:57:52;13.87;;;3.27;;
24443;SDS011;13346;50.984;5.822;2023-12-20T11:00:22;14.07;;;5.00;;
24443;SDS011;13346;50.984;5.822;2023-12-20T11:02:50;10.60;;;3.87;;
24443;SDS011;13346;50.984;5.822;2023-12-20T11:05:22;10.07;;;2.80;;
24443;SDS011;13346;50.984;5.822;2023-12-20T11:07:55;5.77;;;2.90;;
24443;SDS011;13346;50.984;5.822;2023-12-20T11:10:29;8.17;;;3.63;;
24443;SDS011;13346;50.984;5.822;2023-12-20T11:13:00;6.80;;;3.23;;
24443;SDS011;13346;50.984;5.822;2023-12-20T11:15:36;11.73;;;3.60;;
24443;SDS011;13346;50.984;5.822;2023-12-20T11:18:04;8.40;;;2.70;;
24443;SDS011;13346;50.984;5.822;2023-12-20T11:20:35;6.47;;;2.93;;
24443;SDS011;13346;50.984;5.822;2023-12-20T11:23:04;13.00;;;2.60;;
24443;SDS011;13346;50.984;5.822;2023-12-20T11:25:37;5.73;;;2.80;;
24443;SDS011;13346;50.984;5.822;2023-12-20T11:28:20;8.63;;;2.67;;
24443;SDS011;13346;50.984;5.822;2023-12-20T11:30:50;5.90;;;3.33;;
24443;SDS011;13346;50.984;5.822;2023-12-20T11:33:21;5.77;;;2.30;;
24443;SDS011;13346;50.984;5.822;2023-12-20T11:35:49;2.47;;;1.87;;
24443;SDS011;13346;50.984;5.822;2023-12-20T11:38:16;7.47;;;3.70;;
24443;SDS011;13346;50.984;5.822;2023-12-20T11:40:44;7.70;;;3.23;;
24443;SDS011;13346;50.984;5.822;2023-12-20T11:43:16;7.03;;;2.77;;
24443;SDS011;13346;50.984;5.822;2023-12-20T11:45:59;10.50;;;3.50;;
24443;SDS011;13346;50.984;5.822;2023-12-20T11:48:30;7.07;;;3.23;;
24443;SDS011;13346;50.984;5.822;2023-12-20T11:50:57;15.33;;;4.23;;
24443;SDS011;13346;50.984;5.822;2023-12-20T11:53:25;5.63;;;2.60;;
24443;SDS011;13346;50.984;5.822;2023-12-20T11:55:53;5.13;;;1.73;;
24443;SDS011;13346;50.984;5.822;2023-12-20T11:58:21;7.10;;;3.33;;
24443;SDS011;13346;50.984;5.822;2023-12-20T12:00:48;7.37;;;2.57;;
24443;SDS011;13346;50.984;5.822;2023-12-20T12:03:18;4.23;;;2.97;;
24443;SDS011;13346;50.984;5.822;2023-12-20T12:05:46;6.70;;;2.57;;
24443;SDS011;13346;50.984;5.822;2023-12-20T12:08:14;4.83;;;2.30;;
24443;SDS011;13346;50.984;5.822;2023-12-20T12:10:41;7.43;;;2.70;;
24443;SDS011;13346;50.984;5.822;2023-12-20T12:13:08;6.90;;;3.10;;
24443;SDS011;13346;50.984;5.822;2023-12-20T12:15:36;11.67;;;3.73;;
24443;SDS011;13346;50.984;5.822;2023-12-20T12:18:04;16.97;;;3.53;;
24443;SDS011;13346;50.984;5.822;2023-12-20T12:20:33;11.80;;;3.80;;
24443;SDS011;13346;50.984;5.822;2023-12-20T12:23:00;6.77;;;3.43;;
24443;SDS011;13346;50.984;5.822;2023-12-20T12:25:28;7.53;;;3.53;;
24443;SDS011;13346;50.984;5.822;2023-12-20T12:27:56;6.77;;;3.23;;
24443;SDS011;13346;50.984;5.822;2023-12-20T12:30:24;13.20;;;3.57;;
24443;SDS011;13346;50.984;5.822;2023-12-20T12:32:52;10.27;;;3.53;;
24443;SDS011;13346;50.984;5.822;2023-12-20T12:35:20;10.77;;;3.30;;
24443;SDS011;13346;50.984;5.822;2023-12-20T12:37:49;6.60;;;3.37;;
24443;SDS011;13346;50.984;5.822;2023-12-20T12:40:17;9.37;;;2.80;;
24443;SDS011;13346;50.984;5.822;2023-12-20T12:42:45;6.77;;;3.10;;
24443;SDS011;13346;50.984;5.822;2023-12-20T12:45:12;10.13;;;3.30;;
24443;SDS011;13346;50.984;5.822;2023-12-20T12:47:40;7.10;;;3.10;;
24443;SDS011;13346;50.984;5.822;2023-12-20T12:50:08;12.53;;;3.73;;
24443;SDS011;13346;50.984;5.822;2023-12-20T12:52:35;10.43;;;5.20;;
24443;SDS011;13346;50.984;5.822;2023-12-20T12:55:04;6.27;;;3.43;;
24443;SDS011;13346;50.984;5.822;2023-12-20T12:57:32;7.00;;;3.27;;
24443;SDS011;13346;50.984;5.822;2023-12-20T12:59:59;8.17;;;5.13;;
24443;SDS011;13346;50.984;5.822;2023-12-20T13:02:28;11.17;;;4.17;;
24443;SDS011;13346;50.984;5.822;2023-12-20T13:04:55;15.63;;;4.37;;
24443;SDS011;13346;50.984;5.822;2023-12-20T13:07:22;13.93;;;4.90;;
24443;SDS011;13346;50.984;5.822;2023-12-20T13:09:50;12.20;;;3.40;;
24443;SDS011;13346;50.984;5.822;2023-12-20T13:12:18;11.13;;;4.17;;
24443;SDS011;13346;50.984;5.822;2023-12-20T13:14:46;6.60;;;4.03;;
24443;SDS011;13346;50.984;5.822;2023-12-20T13:17:14;7.63;;;3.60;;
24443;SDS011;13346;50.984;5.822;2023-12-20T13:19:41;8.30;;;4.43;;
24443;SDS011;13346;50.984;5.822;2023-12-20T13:22:08;8.80;;;4.30;;
24443;SDS011;13346;50.984;5.822;2023-12-20T13:24:35;8.60;;;4.13;;
24443;SDS011;13346;50.984;5.822;2023-12-20T13:27:03;3.97;;;2.93;;
24443;SDS011;13346;50.984;5.822;2023-12-20T13:29:31;7.93;;;3.80;;
24443;SDS011;13346;50.984;5.822;2023-12-20T13:31:59;5.30;;;3.70;;
24443;SDS011;13346;50.984;5.822;2023-12-20T13:34:26;5.17;;;3.80;;
24443;SDS011;13346;50.984;5.822;2023-12-20T13:36:53;10.57;;;4.23;;
24443;SDS011;13346;50.984;5.822;2023-12-20T13:39:20;9.43;;;4.53;;
24443;SDS011;13346;50.984;5.822;2023-12-20T13:41:47;6.70;;;4.17;;
24443;SDS011;13346;50.984;5.822;2023-12-20T13:44:14;5.87;;;2.73;;
24443;SDS011;13346;50.984;5.822;2023-12-20T13:46:43;6.47;;;3.80;;
24443;SDS011;13346;50.984;5.822;2023-12-20T13:49:11;4.73;;;3.87;;
24443;SDS011;13346;50.984;5.822;2023-12-20T13:51:39;3.77;;;3.37;;
24443;SDS011;13346;50.984;5.822;2023-12-20T13:54:06;7.27;;;3.07;;
24443;SDS011;13346;50.984;5.822;2023-12-20T13:56:34;9.03;;;2.80;;
24443;SDS011;13346;50.984;5.822;2023-12-20T13:59:01;7.47;;;3.30;;
24443;SDS011;13346;50.984;5.822;2023-12-20T14:01:28;11.83;;;3.43;;
24443;SDS011;13346;50.984;5.822;2023-12-20T14:03:57;11.43;;;3.70;;
24443;SDS011;13346;50.984;5.822;2023-12-20T14:06:25;9.77;;;3.07;;
24443;SDS011;13346;50.984;5.822;2023-12-20T14:08:52;8.83;;;3.23;;
24443;SDS011;13346;50.984;5.822;2023-12-20T14:11:20;12.13;;;3.60;;
24443;SDS011;13346;50.984;5.822;2023-12-20T14:13:47;8.07;;;3.93;;
24443;SDS011;13346;50.984;5.822;2023-12-20T14:16:14;7.73;;;2.50;;
24443;SDS011;13346;50.984;5.822;2023-12-20T14:18:41;5.83;;;4.43;;
24443;SDS011;13346;50.984;5.822;2023-12-20T14:21:10;8.53;;;3.90;;
24443;SDS011;13346;50.984;5.822;2023-12-20T14:23:37;7.80;;;3.87;;
24443;SDS011;13346;50.984;5.822;2023-12-20T14:26:04;8.80;;;4.20;;
24443;SDS011;13346;50.984;5.822;2023-12-20T14:28:31;6.90;;;4.17;;
24443;SDS011;13346;50.984;5.822;2023-12-20T14:30:58;10.47;;;3.23;;
24443;SDS011;13346;50.984;5.822;2023-12-20T14:33:26;11.47;;;5.13;;
24443;SDS011;13346;50.984;5.822;2023-12-20T14:35:53;5.73;;;4.10;;
24443;SDS011;13346;50.984;5.822;2023-12-20T14:38:21;8.83;;;2.97;;
24443;SDS011;13346;50.984;5.822;2023-12-20T14:40:49;7.43;;;3.23;;
24443;SDS011;13346;50.984;5.822;2023-12-20T14:43:16;5.20;;;2.70;;
24443;SDS011;13346;50.984;5.822;2023-12-20T14:45:43;11.70;;;4.83;;